createdAt,value
2023-01-08T11:56:12.364Z,6.32
2023-01-08T12:02:45.610Z,6.49
2023-01-08T12:08:49.458Z,6.51
2023-01-08T12:14:57.127Z,6.62
2023-01-08T12:21:18.477Z,6.74
2023-01-08T12:27:56.519Z,6.87
2023-01-08T12:34:05.712Z,7.17
2023-01-08T12:40:20.616Z,7.34
2023-01-08T12:46:26.648Z,7.49
2023-01-08T12:52:48.610Z,7.60
2023-01-08T12:59:43.436Z,7.65
2023-01-08T13:05:49.828Z,7.71
2023-01-08T13:12:02.105Z,7.61
2023-01-08T13:18:36.337Z,7.48
2023-01-08T13:24:43.455Z,7.58
2023-01-08T13:30:49.242Z,7.64
2023-01-08T13:37:23.141Z,7.58
2023-01-08T13:43:32.024Z,7.63
2023-01-08T13:49:53.894Z,7.59
2023-01-08T13:56:02.456Z,7.55
2023-01-08T14:02:22.749Z,7.58
2023-01-08T14:08:28.998Z,7.57
2023-01-08T14:14:32.152Z,7.52
2023-01-08T14:20:48.597Z,7.45
2023-01-08T14:26:54.068Z,7.30
2023-01-08T14:33:01.330Z,7.17
2023-01-08T14:39:19.796Z,7.12
2023-01-08T14:45:28.654Z,6.95
2023-01-08T14:51:32.145Z,6.80
2023-01-08T14:57:46.843Z,6.57
2023-01-08T15:03:51.603Z,6.38
2023-01-08T15:10:01.360Z,6.10
2023-01-08T15:16:28.555Z,6.04
2023-01-08T15:22:33.082Z,5.90
2023-01-08T15:28:37.691Z,5.94
2023-01-08T15:35:07.204Z,5.81
2023-01-08T15:41:35.376Z,5.68
2023-01-08T15:47:40.584Z,5.78
2023-01-08T15:53:47.084Z,5.68
2023-01-08T16:00:04.574Z,5.36
2023-01-08T16:06:27.200Z,5.02
2023-01-08T16:12:47.260Z,4.96
2023-01-08T16:19:07.910Z,4.97
2023-01-08T16:25:17.009Z,4.86
2023-01-08T16:31:33.829Z,4.66
2023-01-08T16:37:48.357Z,4.77
2023-01-08T16:43:59.901Z,4.77
2023-01-08T16:50:26.578Z,4.66
2023-01-08T16:56:45.501Z,4.53
2023-01-08T17:02:51.858Z,4.56
2023-01-08T17:09:20.351Z,4.47
2023-01-08T17:15:27.429Z,4.31
2023-01-08T17:21:41.987Z,4.35
2023-01-08T17:28:14.638Z,4.40
2023-01-08T17:34:37.622Z,4.28
2023-01-08T17:40:45.003Z,4.35
2023-01-08T17:46:52.907Z,4.31
2023-01-08T17:53:05.064Z,4.24
2023-01-08T17:59:13.305Z,4.13
2023-01-08T18:05:34.943Z,4.01
2023-01-08T18:11:49.215Z,4.01
2023-01-08T18:17:55.057Z,4.04
2023-01-08T18:24:11.629Z,3.99
2023-01-08T18:30:33.697Z,3.92
2023-01-08T18:36:54.804Z,3.94
2023-01-08T18:43:00.415Z,3.91
2023-01-08T18:49:20.226Z,3.86
2023-01-08T18:55:56.534Z,3.83
2023-01-08T19:02:07.888Z,3.83
2023-01-08T19:08:21.250Z,4.17
2023-01-08T19:14:29.347Z,4.14
2023-01-08T19:20:36.076Z,4.08
2023-01-08T19:27:05.148Z,4.12
2023-01-08T19:33:13.283Z,4.04
2023-01-08T19:39:26.533Z,4.10
2023-01-08T19:45:38.453Z,4.22
2023-01-08T19:51:57.242Z,4.26
2023-01-08T19:58:03.099Z,4.06
2023-01-08T20:04:36.916Z,3.88
2023-01-08T20:10:50.599Z,3.87
2023-01-08T20:17:25.558Z,4.04
2023-01-08T20:23:31.687Z,3.95
2023-01-08T20:29:37.999Z,3.90
2023-01-08T20:35:59.747Z,4.04
2023-01-08T20:42:05.178Z,4.29
2023-01-08T20:48:12.231Z,4.40
2023-01-08T20:54:36.478Z,4.50
2023-01-08T21:00:41.563Z,4.50
2023-01-08T21:06:51.371Z,4.65
2023-01-08T21:12:58.209Z,4.84
2023-01-08T21:19:05.743Z,4.83
2023-01-08T21:25:18.951Z,4.69
2023-01-08T21:31:43.539Z,4.75
2023-01-08T21:37:52.753Z,4.97
2023-01-08T21:44:16.483Z,5.12
2023-01-08T21:50:20.328Z,4.94
2023-01-08T21:56:42.750Z,5.15
2023-01-08T22:03:19.160Z,5.02
2023-01-08T22:09:40.842Z,5.15
2023-01-08T22:15:46.921Z,5.03
2023-01-08T22:21:52.825Z,5.02
2023-01-08T22:27:57.554Z,5.15
2023-01-08T22:34:19.251Z,5.36
2023-01-08T22:40:36.328Z,5.58
2023-01-08T22:46:56.518Z,5.36
2023-01-08T22:53:04.250Z,5.09
2023-01-08T22:59:08.658Z,5.20
2023-01-08T23:05:16.918Z,5.30
2023-01-08T23:11:27.736Z,5.18
2023-01-08T23:17:52.088Z,5.07
2023-01-08T23:23:58.960Z,5.08
2023-01-08T23:30:03.687Z,4.99
2023-01-08T23:36:07.600Z,4.98
2023-01-08T23:42:19.886Z,5.12
2023-01-08T23:48:23.283Z,5.02
2023-01-08T23:54:32.840Z,4.78
